sim
Sign-in with your pilot id or email,
or register
Callsign
Passwort

Schedule Details

Flight Number: OEC7618
Departure: Luxembourg Findel Airport (ELLX) at 18:15
Arrival: Bratislava M. R. Stefanik Airport (LZIB) at Time
Route: ELLX ASMOX Y891 ROPUV L607 EMGOD/N0447F370 L607 RUDUS UL984 OSBIT UZ205 LULAR Z205 BUDEX Z37 GIMBO DCT LADAG DCT MASUR DCT UBUXI DCT BEGLA DCT KUVEX LZIB

Weather Information
Getting current METAR information for ELLX 232050Z 06006KT 6000 FEW007 11/10 Q1010 BECMG 3000 BR
Getting current METAR information for LZIB 232100Z 05003KT CAVOK 13/10 Q1017

Schedule Frequency

Route Map